Time;durP1;ratioP1;P1;durP2;ratioP2;P2;SDS_P1;SDS_P2;PMS_P1;PMS_P2;Temp;Humidity;BMP_temperature;BMP_pressure;BME280_temperature;BME280_humidity;BME280_pressure;Samples;Min_cycle;Max_cycle;Signal;HPM_P1;HPM_P2
2023/03/05 00:00:15;;;;;;;17.30;8.85;;;;;;;;;;8433288;28;20040;-77
2023/03/05 00:04:38;;;;;;;18.48;7.07;;;;;;;;;;8435047;28;20051;-79
2023/03/05 00:08:42;;;;;;;17.75;7.55;;;;;;;;;;8419658;28;20036;-79
2023/03/05 00:12:45;;;;;;;14.70;7.72;;;;;;;;;;8419685;28;20044;-78
2023/03/05 00:16:48;;;;;;;15.85;7.78;;;;;;;;;;8433132;28;20119;-78
2023/03/05 00:20:51;;;;;;;19.85;8.38;;;;;;;;;;8432855;28;20048;-78
2023/03/05 00:24:56;;;;;;;13.77;6.22;;;;;;;;;;8432497;28;20138;-79
2023/03/05 00:29:00;;;;;;;10.40;6.18;;;;;;;;;;8407646;28;20059;-78
2023/03/05 00:33:03;;;;;;;21.83;8.55;;;;;;;;;;8418946;28;20036;-79
2023/03/05 00:37:06;;;;;;;14.23;7.47;;;;;;;;;;8432536;28;20468;-79
2023/03/05 00:41:11;;;;;;;15.63;8.73;;;;;;;;;;8418495;28;20044;-80
2023/03/05 00:45:14;;;;;;;15.38;8.23;;;;;;;;;;8431392;28;20063;-81
2023/03/05 00:49:17;;;;;;;16.73;8.20;;;;;;;;;;8431416;28;20501;-78
2023/03/05 00:53:20;;;;;;;13.10;6.38;;;;;;;;;;8432449;28;20093;-77
2023/03/05 00:57:25;;;;;;;18.08;6.13;;;;;;;;;;8430685;28;20054;-79
2023/03/05 01:01:28;;;;;;;19.50;8.05;;;;;;;;;;8409764;28;20051;-78
2023/03/05 01:05:31;;;;;;;17.90;7.70;;;;;;;;;;8431067;28;20117;-79
2023/03/05 01:09:34;;;;;;;17.20;6.53;;;;;;;;;;8430829;28;20044;-79
2023/03/05 01:13:38;;;;;;;13.93;4.88;;;;;;;;;;8430429;28;20403;-79
2023/03/05 01:17:41;;;;;;;10.93;4.70;;;;;;;;;;8431171;28;20539;-78
2023/03/05 01:21:44;;;;;;;12.65;5.60;;;;;;;;;;8430031;28;20040;-77
2023/03/05 01:25:53;;;;;;;17.42;6.70;;;;;;;;;;8430082;28;20480;-78
2023/03/05 01:29:58;;;;;;;9.93;5.05;;;;;;;;;;8430463;28;20475;-80
2023/03/05 01:34:01;;;;;;;10.77;5.20;;;;;;;;;;8429786;28;20048;-79
2023/03/05 01:38:03;;;;;;;10.38;4.60;;;;;;;;;;8429735;28;20040;-79
2023/03/05 01:42:07;;;;;;;11.55;4.80;;;;;;;;;;8429685;28;20044;-78
2023/03/05 01:46:27;;;;;;;11.50;4.53;;;;;;;;;;8403264;28;20044;-77
2023/03/05 01:50:30;;;;;;;12.07;4.53;;;;;;;;;;8404623;28;20061;-80
2023/03/05 01:54:36;;;;;;;8.77;3.10;;;;;;;;;;8402899;28;20532;-80
2023/03/05 01:58:39;;;;;;;8.90;3.85;;;;;;;;;;8414150;28;20048;-79
2023/03/05 02:02:45;;;;;;;11.38;3.97;;;;;;;;;;8418991;28;20098;-78
2023/03/05 02:06:49;;;;;;;14.27;8.40;;;;;;;;;;8420070;28;20471;-80
2023/03/05 02:10:55;;;;;;;13.30;6.55;;;;;;;;;;8413186;28;20067;-80
2023/03/05 02:14:58;;;;;;;15.43;6.72;;;;;;;;;;8412197;28;20044;-79
2023/03/05 02:19:03;;;;;;;15.05;5.78;;;;;;;;;;8422591;28;20049;-79
2023/03/05 02:23:08;;;;;;;8.00;4.53;;;;;;;;;;8413319;28;20039;-78
2023/03/05 02:27:13;;;;;;;9.68;5.25;;;;;;;;;;8425955;28;20048;-80
2023/03/05 02:31:18;;;;;;;4.50;2.47;;;;;;;;;;8406100;28;20476;-81
2023/03/05 02:35:21;;;;;;;13.32;4.72;;;;;;;;;;8399679;28;20052;-77
2023/03/05 02:39:25;;;;;;;12.45;5.10;;;;;;;;;;8404327;28;20048;-78
2023/03/05 02:43:28;;;;;;;4.75;3.30;;;;;;;;;;8391343;28;20451;-81
2023/03/05 02:47:31;;;;;;;7.40;3.92;;;;;;;;;;8414580;28;20561;-80
2023/03/05 02:51:34;;;;;;;9.60;5.60;;;;;;;;;;8418077;28;20040;-81
2023/03/05 02:55:38;;;;;;;12.02;4.47;;;;;;;;;;8405249;28;20049;-80
2023/03/05 02:59:42;;;;;;;8.00;4.10;;;;;;;;;;8408043;28;20123;-78
2023/03/05 03:03:44;;;;;;;10.25;4.45;;;;;;;;;;8418787;28;20047;-80
2023/03/05 03:07:47;;;;;;;5.88;3.50;;;;;;;;;;8421938;28;20718;-80
2023/03/05 03:11:52;;;;;;;8.45;3.45;;;;;;;;;;8431990;28;20128;-81
2023/03/05 03:16:02;;;;;;;6.82;3.75;;;;;;;;;;8423681;28;20048;-78
2023/03/05 03:20:08;;;;;;;7.43;4.05;;;;;;;;;;8434245;28;20059;-79
2023/03/05 03:24:11;;;;;;;8.48;3.78;;;;;;;;;;8434354;28;20047;-79
2023/03/05 03:28:15;;;;;;;5.70;3.58;;;;;;;;;;8434004;28;20119;-78
2023/03/05 03:32:18;;;;;;;13.10;5.65;;;;;;;;;;8433993;28;20044;-79
2023/03/05 03:36:21;;;;;;;11.68;5.25;;;;;;;;;;8412621;28;20457;-77
2023/03/05 03:40:24;;;;;;;10.43;4.85;;;;;;;;;;8420276;28;20039;-77
2023/03/05 03:44:28;;;;;;;14.02;6.05;;;;;;;;;;8433605;28;20050;-79
2023/03/05 03:48:31;;;;;;;12.02;4.82;;;;;;;;;;8420044;28;20166;-79
2023/03/05 03:52:34;;;;;;;11.98;4.75;;;;;;;;;;8433417;28;20044;-80
2023/03/05 03:56:37;;;;;;;13.05;6.35;;;;;;;;;;8432711;28;20048;-78
2023/03/05 04:00:42;;;;;;;10.50;5.53;;;;;;;;;;8433208;28;20048;-77
2023/03/05 04:04:45;;;;;;;13.27;6.63;;;;;;;;;;8433473;28;20479;-79
2023/03/05 04:08:47;;;;;;;16.20;7.75;;;;;;;;;;8432849;28;20040;-77
2023/03/05 04:12:50;;;;;;;35.28;16.63;;;;;;;;;;8432457;28;20047;-78
2023/03/05 04:16:55;;;;;;;17.65;9.65;;;;;;;;;;8422336;28;20041;-77
2023/03/05 04:20:57;;;;;;;16.58;5.22;;;;;;;;;;8409277;28;20082;-79
2023/03/05 04:25:02;;;;;;;11.63;6.30;;;;;;;;;;8419051;28;20451;-79
2023/03/05 04:29:05;;;;;;;19.02;8.20;;;;;;;;;;8432059;28;20052;-80
2023/03/05 04:33:09;;;;;;;14.05;5.93;;;;;;;;;;8432113;28;20090;-77
2023/03/05 04:37:12;;;;;;;11.75;7.28;;;;;;;;;;8432046;28;20135;-79
2023/03/05 04:41:15;;;;;;;15.63;7.15;;;;;;;;;;8432131;28;20539;-79
2023/03/05 04:45:18;;;;;;;10.27;4.90;;;;;;;;;;8431286;28;20108;-78
2023/03/05 04:49:22;;;;;;;10.07;4.53;;;;;;;;;;8431093;28;20061;-79
2023/03/05 04:53:25;;;;;;;12.50;5.22;;;;;;;;;;8431519;28;20050;-80
2023/03/05 04:57:28;;;;;;;11.35;4.75;;;;;;;;;;8425342;28;20063;-79
2023/03/05 05:01:31;;;;;;;9.52;4.55;;;;;;;;;;8423808;28;20044;-79
2023/03/05 05:05:36;;;;;;;18.85;8.77;;;;;;;;;;8430751;28;20127;-79
2023/03/05 05:09:40;;;;;;;12.50;5.75;;;;;;;;;;8430835;28;20048;-80
2023/03/05 05:13:42;;;;;;;10.35;4.30;;;;;;;;;;8430578;28;20555;-79
2023/03/05 05:17:46;;;;;;;15.45;5.38;;;;;;;;;;8430979;28;20044;-80
2023/03/05 05:21:50;;;;;;;15.38;6.65;;;;;;;;;;8429513;28;20127;-81
2023/03/05 05:25:57;;;;;;;31.20;14.07;;;;;;;;;;8430424;28;20104;-80
2023/03/05 05:30:00;;;;;;;29.48;10.50;;;;;;;;;;8404502;28;20040;-80
2023/03/05 05:34:03;;;;;;;17.75;8.77;;;;;;;;;;8429710;28;20046;-78
2023/03/05 05:38:08;;;;;;;37.67;18.45;;;;;;;;;;8403533;28;20403;-81
2023/03/05 05:42:10;;;;;;;21.73;8.02;;;;;;;;;;8429711;28;20048;-80
2023/03/05 05:46:16;;;;;;;26.48;14.60;;;;;;;;;;8403746;28;20036;-78
2023/03/05 05:50:19;;;;;;;25.92;12.55;;;;;;;;;;8429642;28;20483;-80
2023/03/05 05:54:24;;;;;;;17.52;9.52;;;;;;;;;;8429707;28;20048;-81
2023/03/05 05:58:26;;;;;;;23.20;12.73;;;;;;;;;;8429120;28;20407;-80
2023/03/05 06:02:29;;;;;;;11.93;6.25;;;;;;;;;;8429328;28;20182;-79
2023/03/05 06:06:33;;;;;;;17.13;5.82;;;;;;;;;;8429262;28;20524;-79
2023/03/05 06:10:38;;;;;;;11.55;5.72;;;;;;;;;;8403170;28;20094;-80
2023/03/05 06:14:40;;;;;;;14.48;8.40;;;;;;;;;;8427382;28;20520;-81
2023/03/05 06:18:43;;;;;;;14.32;6.82;;;;;;;;;;8429031;28;20119;-80
2023/03/05 06:22:46;;;;;;;13.82;6.45;;;;;;;;;;8428625;28;20043;-80
2023/03/05 06:26:50;;;;;;;13.50;5.78;;;;;;;;;;8428661;28;20040;-79
2023/03/05 06:31:00;;;;;;;17.45;8.02;;;;;;;;;;8428640;28;20096;-80
2023/03/05 06:35:04;;;;;;;13.10;8.10;;;;;;;;;;8393104;28;20037;-78
2023/03/05 06:39:07;;;;;;;13.02;6.72;;;;;;;;;;8416517;28;20058;-79
2023/03/05 06:43:12;;;;;;;49.80;16.65;;;;;;;;;;8435483;28;20162;-80
2023/03/05 06:47:15;;;;;;;12.52;5.38;;;;;;;;;;8416742;28;20044;-80
2023/03/05 06:51:20;;;;;;;11.38;4.45;;;;;;;;;;8406263;28;20650;-82
2023/03/05 06:55:22;;;;;;;14.63;7.18;;;;;;;;;;8422218;28;20063;-80
2023/03/05 06:59:27;;;;;;;17.33;6.45;;;;;;;;;;8412815;28;20543;-81
2023/03/05 07:03:30;;;;;;;19.08;9.00;;;;;;;;;;8399764;28;20045;-81
2023/03/05 07:07:33;;;;;;;25.17;12.32;;;;;;;;;;8406867;28;20048;-82
2023/03/05 07:11:36;;;;;;;18.52;8.55;;;;;;;;;;8397682;28;20042;-81
2023/03/05 07:15:41;;;;;;;18.08;7.85;;;;;;;;;;8426214;28;20052;-82
2023/03/05 07:19:44;;;;;;;17.83;8.55;;;;;;;;;;8421703;28;20398;-81
2023/03/05 07:23:48;;;;;;;15.95;7.47;;;;;;;;;;8435100;28;20471;-82
2023/03/05 07:27:51;;;;;;;12.18;5.28;;;;;;;;;;8433545;28;20050;-81
2023/03/05 07:31:56;;;;;;;21.08;9.40;;;;;;;;;;8433812;28;20067;-81
2023/03/05 07:35:59;;;;;;;14.18;6.07;;;;;;;;;;8433635;28;20048;-83
2023/03/05 07:40:02;;;;;;;18.88;9.57;;;;;;;;;;8434294;28;20044;-79
2023/03/05 07:44:05;;;;;;;17.25;8.10;;;;;;;;;;8417930;28;20044;-81
2023/03/05 07:48:14;;;;;;;14.77;6.68;;;;;;;;;;8422426;28;20225;-81
2023/03/05 07:52:18;;;;;;;16.65;6.00;;;;;;;;;;8432518;28;20525;-81
2023/03/05 07:56:24;;;;;;;20.75;7.60;;;;;;;;;;8432634;28;20040;-80
2023/03/05 08:00:27;;;;;;;15.52;7.38;;;;;;;;;;8433122;28;20072;-80
2023/03/05 08:04:32;;;;;;;15.95;5.90;;;;;;;;;;8431468;28;20051;-80
2023/03/05 08:08:36;;;;;;;13.57;5.70;;;;;;;;;;8399047;28;20049;-82
2023/03/05 08:12:39;;;;;;;21.58;7.25;;;;;;;;;;8372936;28;20122;-82
2023/03/05 08:16:42;;;;;;;18.95;7.10;;;;;;;;;;8377140;28;20127;-83
2023/03/05 08:20:46;;;;;;;13.52;5.45;;;;;;;;;;8384706;28;20052;-82
2023/03/05 08:24:50;;;;;;;15.70;5.00;;;;;;;;;;8377404;28;20059;-80
2023/03/05 08:28:54;;;;;;;22.08;9.10;;;;;;;;;;8395508;28;20106;-84
2023/03/05 08:32:57;;;;;;;7.70;3.72;;;;;;;;;;8384604;28;20040;-83
2023/03/05 08:37:02;;;;;;;17.80;6.40;;;;;;;;;;8402750;28;20503;-84
2023/03/05 08:41:05;;;;;;;12.27;5.70;;;;;;;;;;8400717;28;20454;-83
2023/03/05 08:45:10;;;;;;;12.82;4.82;;;;;;;;;;8384265;28;20502;-88
2023/03/05 08:49:13;;;;;;;11.18;4.22;;;;;;;;;;8378825;28;20128;-81
2023/03/05 08:53:17;;;;;;;5.25;2.80;;;;;;;;;;8373464;28;20756;-81
2023/03/05 08:57:20;;;;;;;7.15;3.63;;;;;;;;;;8379632;28;20048;-82
2023/03/05 09:01:23;;;;;;;11.77;4.35;;;;;;;;;;8376963;28;20044;-82
2023/03/05 09:05:26;;;;;;;9.85;4.45;;;;;;;;;;8385453;28;20143;-81
2023/03/05 09:09:31;;;;;;;6.78;4.30;;;;;;;;;;8392581;28;20130;-81
2023/03/05 09:13:35;;;;;;;10.75;4.22;;;;;;;;;;8378096;28;20058;-82
2023/03/05 09:17:40;;;;;;;30.15;9.82;;;;;;;;;;8392807;28;20056;-82
2023/03/05 09:21:47;;;;;;;25.92;9.32;;;;;;;;;;8396538;28;20040;-85
2023/03/05 09:25:52;;;;;;;23.15;9.77;;;;;;;;;;8380635;28;20118;-80
2023/03/05 09:29:55;;;;;;;10.30;5.15;;;;;;;;;;8367344;28;20053;-83
2023/03/05 09:33:58;;;;;;;10.55;4.78;;;;;;;;;;8381709;28;20055;-80
2023/03/05 09:38:02;;;;;;;13.68;5.72;;;;;;;;;;8378313;28;20045;-82
2023/03/05 09:42:28;;;;;;;102.13;34.08;;;;;;;;;;8386296;28;20141;-81
2023/03/05 09:46:42;;;;;;;43.00;8.93;;;;;;;;;;8393107;28;20047;-80
2023/03/05 09:50:49;;;;;;;23.38;7.20;;;;;;;;;;8376391;28;20515;-85
2023/03/05 09:54:56;;;;;;;32.95;8.15;;;;;;;;;;8404895;28;20051;-80
2023/03/05 09:59:15;;;;;;;14.10;7.13;;;;;;;;;;8388346;28;20047;-81
2023/03/05 10:03:28;;;;;;;29.08;7.32;;;;;;;;;;8385338;28;20139;-80
2023/03/05 10:07:34;;;;;;;50.93;13.13;;;;;;;;;;8398725;28;20048;-82
2023/03/05 10:11:54;;;;;;;16.38;6.68;;;;;;;;;;8391414;28;20044;-86
2023/03/05 10:16:06;;;;;;;13.43;6.03;;;;;;;;;;8382436;28;20550;-82
2023/03/05 10:20:49;;;;;;;69.95;26.15;;;;;;;;;;8392591;28;20566;-81
2023/03/05 10:25:08;;;;;;;16.60;8.02;;;;;;;;;;8392834;28;20055;-81
2023/03/05 10:29:43;;;;;;;42.33;12.25;;;;;;;;;;8392320;28;20072;-82
2023/03/05 10:33:59;;;;;;;18.90;7.65;;;;;;;;;;8373604;28;20123;-82
2023/03/05 10:38:26;;;;;;;20.23;7.35;;;;;;;;;;8382146;28;20086;-79
2023/03/05 10:42:37;;;;;;;38.63;14.32;;;;;;;;;;8383138;28;20535;-81
2023/03/05 10:46:41;;;;;;;;;;;;;;;;;;8384093;28;20475;-82
2023/03/05 10:50:50;;;;;;;18.85;7.93;;;;;;;;;;8382162;28;19928;-81
2023/03/05 10:54:54;;;;;;;51.97;19.67;;;;;;;;;;8377402;28;20049;-81
2023/03/05 10:58:57;;;;;;;51.00;19.15;;;;;;;;;;8371452;28;20045;-82
2023/03/05 11:03:02;;;;;;;55.60;22.77;;;;;;;;;;8368518;28;20052;-82
2023/03/05 11:07:34;;;;;;;50.25;15.05;;;;;;;;;;8371225;28;20067;-83
2023/03/05 11:11:38;;;;;;;22.88;7.97;;;;;;;;;;8377425;28;20045;-87
2023/03/05 11:15:43;;;;;;;30.67;11.13;;;;;;;;;;8372931;28;20563;-81
2023/03/05 11:19:47;;;;;;;23.25;9.50;;;;;;;;;;8400829;28;20095;-84
2023/03/05 11:24:13;;;;;;;24.70;9.68;;;;;;;;;;8379414;28;20041;-82
2023/03/05 11:28:20;;;;;;;18.30;9.10;;;;;;;;;;8383388;28;20047;-81
2023/03/05 11:32:26;;;;;;;27.23;10.35;;;;;;;;;;8375049;28;20052;-81
2023/03/05 11:36:32;;;;;;;22.83;7.45;;;;;;;;;;8380256;28;20052;-79
2023/03/05 11:40:38;;;;;;;24.10;8.27;;;;;;;;;;8389117;28;20102;-82
2023/03/05 11:44:47;;;;;;;23.45;9.85;;;;;;;;;;8411937;28;20456;-80
2023/03/05 11:48:53;;;;;;;17.55;7.20;;;;;;;;;;8423798;28;20044;-81
2023/03/05 11:53:05;;;;;;;58.97;14.27;;;;;;;;;;8425603;28;20120;-82
2023/03/05 11:57:17;;;;;;;25.95;10.05;;;;;;;;;;8404249;28;20044;-82
2023/03/05 12:01:23;;;;;;;50.28;15.52;;;;;;;;;;8407250;28;20094;-81
2023/03/05 12:05:28;;;;;;;72.50;26.20;;;;;;;;;;8406835;28;20055;-79
2023/03/05 12:09:41;;;;;;;38.83;11.88;;;;;;;;;;8425333;28;20049;-81
2023/03/05 12:13:48;;;;;;;23.20;9.90;;;;;;;;;;8407342;28;20056;-79
2023/03/05 12:18:03;;;;;;;24.67;11.18;;;;;;;;;;8389236;28;20049;-82
2023/03/05 12:22:15;;;;;;;26.85;12.63;;;;;;;;;;8432218;28;20122;-80
2023/03/05 12:26:19;;;;;;;38.42;18.98;;;;;;;;;;8387511;28;20079;-80
2023/03/05 12:30:58;;;;;;;45.53;17.67;;;;;;;;;;8420121;28;20140;-82
2023/03/05 12:35:03;;;;;;;29.52;12.13;;;;;;;;;;8407267;28;20044;-83
2023/03/05 12:39:43;;;;;;;20.08;9.95;;;;;;;;;;8431873;28;20169;-82
2023/03/05 12:44:08;;;;;;;17.15;8.93;;;;;;;;;;8391306;28;20533;-83
2023/03/05 12:48:47;;;;;;;69.13;23.95;;;;;;;;;;8400845;28;20638;-82
2023/03/05 12:52:51;;;;;;;24.90;11.63;;;;;;;;;;8414876;28;20068;-81
2023/03/05 12:56:57;;;;;;;20.63;7.47;;;;;;;;;;8409372;28;20041;-84
2023/03/05 13:01:08;;;;;;;26.13;7.82;;;;;;;;;;8412558;28;20138;-81
2023/03/05 13:05:31;;;;;;;14.45;6.18;;;;;;;;;;8431647;28;20445;-81
2023/03/05 13:09:36;;;;;;;11.60;5.15;;;;;;;;;;8394353;28;20044;-80
2023/03/05 13:13:43;;;;;;;11.98;6.35;;;;;;;;;;8390191;28;20499;-81
2023/03/05 13:17:55;;;;;;;14.13;6.25;;;;;;;;;;8414402;28;20047;-82
2023/03/05 13:22:03;;;;;;;9.70;5.47;;;;;;;;;;8417526;28;20051;-82
2023/03/05 13:26:14;;;;;;;17.00;7.00;;;;;;;;;;8400479;28;20507;-84
2023/03/05 13:30:23;;;;;;;23.42;9.18;;;;;;;;;;8379115;28;20160;-81
2023/03/05 13:34:29;;;;;;;15.80;6.47;;;;;;;;;;8388788;28;20053;-82
2023/03/05 13:38:37;;;;;;;19.55;7.78;;;;;;;;;;8396059;28;20063;-82
2023/03/05 13:42:42;;;;;;;13.77;7.13;;;;;;;;;;8380814;28;20060;-83
2023/03/05 13:46:50;;;;;;;16.85;6.15;;;;;;;;;;8372396;28;20455;-81
2023/03/05 13:50:58;;;;;;;9.38;3.55;;;;;;;;;;8375405;28;20505;-84
2023/03/05 13:55:12;;;;;;;20.88;6.22;;;;;;;;;;8376003;28;20135;-84
2023/03/05 13:59:19;;;;;;;7.57;4.07;;;;;;;;;;8382787;28;20535;-83
2023/03/05 14:03:28;;;;;;;15.05;7.18;;;;;;;;;;8376477;28;20072;-81
2023/03/05 14:07:38;;;;;;;12.45;4.18;;;;;;;;;;8353127;28;20067;-87
2023/03/05 14:11:54;;;;;;;12.48;5.68;;;;;;;;;;8373418;28;20078;-82
2023/03/05 14:16:06;;;;;;;15.32;6.45;;;;;;;;;;8375695;28;20045;-82
2023/03/05 14:20:22;;;;;;;15.88;6.80;;;;;;;;;;8375225;28;20052;-80
2023/03/05 14:24:30;;;;;;;14.57;6.95;;;;;;;;;;8385851;28;20048;-80
2023/03/05 14:28:38;;;;;;;15.38;6.10;;;;;;;;;;8393739;28;20052;-80
2023/03/05 14:32:45;;;;;;;12.27;5.03;;;;;;;;;;8392485;28;20495;-81
2023/03/05 14:36:52;;;;;;;19.25;5.30;;;;;;;;;;8427963;28;20443;-83
2023/03/05 14:40:58;;;;;;;14.80;6.80;;;;;;;;;;8428624;28;20191;-79
2023/03/05 14:45:13;;;;;;;8.55;4.45;;;;;;;;;;8428425;28;20085;-82
2023/03/05 14:49:21;;;;;;;4.45;3.70;;;;;;;;;;8427764;28;20407;-82
2023/03/05 14:53:30;;;;;;;17.10;6.47;;;;;;;;;;8431278;28;20376;-80
2023/03/05 14:57:34;;;;;;;14.45;5.43;;;;;;;;;;8435246;28;20066;-81
2023/03/05 15:01:41;;;;;;;16.50;7.43;;;;;;;;;;8412605;28;20499;-81
2023/03/05 15:05:48;;;;;;;15.65;5.60;;;;;;;;;;8381884;28;20087;-80
2023/03/05 15:09:56;;;;;;;10.77;5.00;;;;;;;;;;8403462;28;20089;-84
2023/03/05 15:14:00;;;;;;;14.15;7.25;;;;;;;;;;8405016;28;20059;-83
2023/03/05 15:18:11;;;;;;;13.80;7.07;;;;;;;;;;8394644;28;20044;-83
2023/03/05 15:22:16;;;;;;;25.70;11.13;;;;;;;;;;8421887;28;20052;-87
2023/03/05 15:26:21;;;;;;;13.63;6.65;;;;;;;;;;8430651;28;20132;-87
2023/03/05 15:30:29;;;;;;;11.85;6.22;;;;;;;;;;8415124;28;20044;-81
2023/03/05 15:34:35;;;;;;;15.95;5.90;;;;;;;;;;8409431;28;20036;-81
2023/03/05 15:38:40;;;;;;;18.48;8.55;;;;;;;;;;8434599;28;20043;-82
2023/03/05 15:42:45;;;;;;;12.02;5.60;;;;;;;;;;8405068;28;20525;-82
2023/03/05 15:46:52;;;;;;;10.70;5.30;;;;;;;;;;8403882;28;20036;-83
2023/03/05 15:50:58;;;;;;;10.60;4.13;;;;;;;;;;8404734;28;20450;-82
2023/03/05 15:55:03;;;;;;;10.27;5.28;;;;;;;;;;8400885;28;20045;-85
2023/03/05 15:59:08;;;;;;;12.52;5.43;;;;;;;;;;8400788;28;20042;-80
2023/03/05 16:03:13;;;;;;;11.00;5.22;;;;;;;;;;8434303;28;20040;-82
2023/03/05 16:07:22;;;;;;;68.60;20.65;;;;;;;;;;8415338;28;20564;-83
2023/03/05 16:11:28;;;;;;;11.93;4.93;;;;;;;;;;8433657;28;20063;-81
2023/03/05 16:15:36;;;;;;;19.15;7.78;;;;;;;;;;8431753;28;20040;-81
2023/03/05 16:19:45;;;;;;;13.20;5.78;;;;;;;;;;8409943;28;20037;-82
2023/03/05 16:23:51;;;;;;;28.48;9.02;;;;;;;;;;8426640;28;20048;-84
2023/03/05 16:27:56;;;;;;;14.02;6.60;;;;;;;;;;8411959;28;20375;-82
2023/03/05 16:32:04;;;;;;;18.70;8.15;;;;;;;;;;8432982;28;20039;-82
2023/03/05 16:36:29;;;;;;;23.13;9.68;;;;;;;;;;8418431;28;20040;-92
2023/03/05 16:40:37;;;;;;;31.60;12.68;;;;;;;;;;8406197;28;20418;-83
2023/03/05 16:44:43;;;;;;;28.35;9.90;;;;;;;;;;8413254;28;20494;-80
2023/03/05 16:48:50;;;;;;;14.55;7.20;;;;;;;;;;8422575;28;20143;-84
2023/03/05 16:52:56;;;;;;;16.63;6.65;;;;;;;;;;8397143;28;20055;-82
2023/03/05 16:57:06;;;;;;;22.38;9.05;;;;;;;;;;8427927;28;20067;-87
2023/03/05 17:01:14;;;;;;;12.20;6.18;;;;;;;;;;8397260;28;20044;-83
2023/03/05 17:05:20;;;;;;;11.68;6.47;;;;;;;;;;8404248;28;20052;-81
2023/03/05 17:09:25;;;;;;;21.23;6.50;;;;;;;;;;8429959;28;20392;-82
2023/03/05 17:13:32;;;;;;;23.38;10.40;;;;;;;;;;8430946;28;20495;-81
2023/03/05 17:17:39;;;;;;;16.35;7.35;;;;;;;;;;8418111;28;20041;-82
2023/03/05 17:21:43;;;;;;;12.27;5.22;;;;;;;;;;8404252;28;20054;-82
2023/03/05 17:25:48;;;;;;;15.35;5.40;;;;;;;;;;8430737;28;20434;-82
2023/03/05 17:29:56;;;;;;;17.17;6.32;;;;;;;;;;8431298;28;20575;-82
2023/03/05 17:34:00;;;;;;;10.23;4.95;;;;;;;;;;8429109;28;20088;-84
2023/03/05 17:38:09;;;;;;;13.40;5.15;;;;;;;;;;8420710;28;20471;-82
2023/03/05 17:42:19;;;;;;;14.82;5.45;;;;;;;;;;8425662;28;20048;-82
2023/03/05 17:46:34;;;;;;;13.07;4.75;;;;;;;;;;8418171;28;20127;-81
2023/03/05 17:50:40;;;;;;;13.57;5.38;;;;;;;;;;8421710;28;20477;-82
2023/03/05 17:54:49;;;;;;;24.15;8.80;;;;;;;;;;8414277;28;20055;-86
2023/03/05 17:58:54;;;;;;;16.30;7.32;;;;;;;;;;8414673;28;20052;-80
2023/03/05 18:03:00;;;;;;;24.88;8.45;;;;;;;;;;8418829;28;20347;-82
2023/03/05 18:07:04;;;;;;;23.00;10.30;;;;;;;;;;8426799;28;20040;-81
2023/03/05 18:11:10;;;;;;;24.33;10.52;;;;;;;;;;8419108;28;20047;-85
2023/03/05 18:15:17;;;;;;;21.35;8.30;;;;;;;;;;8426253;28;20044;-82
2023/03/05 18:19:25;;;;;;;17.27;7.35;;;;;;;;;;8420245;28;20782;-83
2023/03/05 18:23:31;;;;;;;16.20;7.47;;;;;;;;;;8412143;28;20078;-82
2023/03/05 18:27:35;;;;;;;20.95;6.97;;;;;;;;;;8423065;28;20181;-81
2023/03/05 18:31:44;;;;;;;20.48;7.65;;;;;;;;;;8393278;28;20051;-83
2023/03/05 18:35:54;;;;;;;17.65;6.93;;;;;;;;;;8416682;28;20718;-82
2023/03/05 18:40:01;;;;;;;22.35;8.35;;;;;;;;;;8407892;28;20047;-86
2023/03/05 18:44:08;;;;;;;18.40;7.57;;;;;;;;;;8416414;28;20040;-84
2023/03/05 18:48:15;;;;;;;21.13;8.52;;;;;;;;;;8424307;28;20083;-85
2023/03/05 18:52:23;;;;;;;18.17;8.95;;;;;;;;;;8421755;28;20056;-83
2023/03/05 18:56:28;;;;;;;16.85;7.53;;;;;;;;;;8419218;28;20040;-81
2023/03/05 19:00:35;;;;;;;36.22;12.63;;;;;;;;;;8424155;28;20135;-81
2023/03/05 19:04:44;;;;;;;23.63;7.45;;;;;;;;;;8414952;28;20044;-86
2023/03/05 19:08:56;;;;;;;14.35;6.90;;;;;;;;;;8423325;28;20036;-81
2023/03/05 19:13:21;;;;;;;17.70;7.72;;;;;;;;;;8427534;28;20118;-81
2023/03/05 19:17:26;;;;;;;13.15;6.10;;;;;;;;;;8414163;28;20401;-85
2023/03/05 19:21:32;;;;;;;19.17;7.22;;;;;;;;;;8421775;28;20044;-82
2023/03/05 19:25:43;;;;;;;24.23;7.30;;;;;;;;;;8409011;28;20044;-82
2023/03/05 19:29:52;;;;;;;16.40;7.38;;;;;;;;;;8414380;28;20040;-87
2023/03/05 19:34:15;;;;;;;23.17;8.98;;;;;;;;;;8418647;28;20502;-83
2023/03/05 19:38:23;;;;;;;23.15;8.15;;;;;;;;;;8420238;28;20071;-82
2023/03/05 19:42:31;;;;;;;27.52;7.88;;;;;;;;;;8415366;28;20086;-84
2023/03/05 19:46:38;;;;;;;22.10;7.68;;;;;;;;;;8433834;28;20561;-83
2023/03/05 19:50:43;;;;;;;16.38;6.20;;;;;;;;;;8398585;28;20048;-80
2023/03/05 19:54:51;;;;;;;23.02;8.00;;;;;;;;;;8409274;28;20132;-90
2023/03/05 19:58:58;;;;;;;26.73;11.02;;;;;;;;;;8400640;28;20045;-81
2023/03/05 20:03:03;;;;;;;18.80;8.65;;;;;;;;;;8417119;28;20483;-81
2023/03/05 20:07:09;;;;;;;28.02;9.45;;;;;;;;;;8414803;28;20131;-82
2023/03/05 20:11:17;;;;;;;16.58;7.85;;;;;;;;;;8433355;28;20050;-81
2023/03/05 20:15:28;;;;;;;20.73;8.63;;;;;;;;;;8432793;28;20047;-82
2023/03/05 20:19:33;;;;;;;21.50;7.80;;;;;;;;;;8424808;28;20047;-81
2023/03/05 20:23:38;;;;;;;22.63;8.80;;;;;;;;;;8427679;28;20044;-82
2023/03/05 20:27:45;;;;;;;19.55;7.53;;;;;;;;;;8423949;28;20048;-80
2023/03/05 20:31:57;;;;;;;17.42;6.10;;;;;;;;;;8414035;28;20441;-80
2023/03/05 20:36:03;;;;;;;14.70;5.72;;;;;;;;;;8415893;28;20094;-82
2023/03/05 20:40:09;;;;;;;14.73;5.47;;;;;;;;;;8410197;28;20123;-81
2023/03/05 20:44:15;;;;;;;12.45;7.07;;;;;;;;;;8430747;28;20466;-81
2023/03/05 20:48:30;;;;;;;18.70;7.72;;;;;;;;;;8431299;28;20454;-81
2023/03/05 20:52:36;;;;;;;16.25;7.70;;;;;;;;;;8430230;28;20136;-82
2023/03/05 20:56:41;;;;;;;17.38;7.32;;;;;;;;;;8431280;28;20044;-83
2023/03/05 21:00:46;;;;;;;19.17;7.63;;;;;;;;;;8430938;28;20446;-81
2023/03/05 21:04:53;;;;;;;24.23;7.70;;;;;;;;;;8431661;28;20494;-81
2023/03/05 21:08:58;;;;;;;18.92;7.90;;;;;;;;;;8430668;28;20425;-80
2023/03/05 21:13:03;;;;;;;15.10;7.20;;;;;;;;;;8405146;28;20049;-83
2023/03/05 21:17:09;;;;;;;18.90;8.05;;;;;;;;;;8429671;28;20044;-81
2023/03/05 21:21:15;;;;;;;29.27;11.75;;;;;;;;;;8430546;28;20419;-81
2023/03/05 21:25:26;;;;;;;30.10;10.68;;;;;;;;;;8430862;28;20441;-82
2023/03/05 21:29:30;;;;;;;23.73;9.73;;;;;;;;;;8430266;28;20071;-79
2023/03/05 21:33:35;;;;;;;22.88;9.30;;;;;;;;;;8430311;28;20055;-81
2023/03/05 21:37:42;;;;;;;24.65;10.70;;;;;;;;;;8397451;28;20048;-82
2023/03/05 21:41:47;;;;;;;30.33;10.95;;;;;;;;;;8429864;28;20040;-82
2023/03/05 21:45:53;;;;;;;27.25;11.30;;;;;;;;;;8429459;28;20097;-80
2023/03/05 21:49:56;;;;;;;23.27;8.98;;;;;;;;;;8429784;28;20063;-81
2023/03/05 21:54:02;;;;;;;28.52;10.57;;;;;;;;;;8429291;28;20089;-80
2023/03/05 21:58:05;;;;;;;27.52;10.68;;;;;;;;;;8429287;28;20048;-81
2023/03/05 22:02:11;;;;;;;24.77;11.02;;;;;;;;;;8428734;28;20526;-81
2023/03/05 22:06:16;;;;;;;22.13;9.95;;;;;;;;;;8428207;28;20118;-81
2023/03/05 22:10:21;;;;;;;20.88;9.18;;;;;;;;;;8394189;28;20032;-81
2023/03/05 22:14:24;;;;;;;22.30;9.68;;;;;;;;;;8429120;28;20150;-82
2023/03/05 22:18:28;;;;;;;21.42;8.23;;;;;;;;;;8428812;28;20581;-80
2023/03/05 22:22:31;;;;;;;16.58;6.90;;;;;;;;;;8429200;28;20036;-81
2023/03/05 22:26:38;;;;;;;23.08;7.93;;;;;;;;;;8429029;28;20490;-79
2023/03/05 22:30:44;;;;;;;19.42;7.05;;;;;;;;;;8428813;28;20112;-81
2023/03/05 22:34:47;;;;;;;23.33;8.45;;;;;;;;;;8429084;28;20054;-81
2023/03/05 22:38:50;;;;;;;15.43;6.95;;;;;;;;;;8429124;28;20051;-82
2023/03/05 22:42:54;;;;;;;14.25;6.03;;;;;;;;;;8428549;28;20046;-81
2023/03/05 22:46:57;;;;;;;11.90;5.82;;;;;;;;;;8428998;28;20036;-80
2023/03/05 22:51:00;;;;;;;10.10;5.10;;;;;;;;;;8428038;28;20058;-79
2023/03/05 22:55:04;;;;;;;14.80;5.57;;;;;;;;;;8430692;28;20433;-82
2023/03/05 22:59:08;;;;;;;12.05;5.15;;;;;;;;;;8428419;28;20099;-81
2023/03/05 23:03:11;;;;;;;12.35;5.05;;;;;;;;;;8428198;28;20046;-81
2023/03/05 23:07:15;;;;;;;9.20;4.50;;;;;;;;;;8414837;28;20487;-80
2023/03/05 23:11:18;;;;;;;14.27;5.05;;;;;;;;;;8428669;28;20113;-80
2023/03/05 23:15:24;;;;;;;29.52;11.32;;;;;;;;;;8431758;28;20048;-81
2023/03/05 23:19:27;;;;;;;21.67;7.70;;;;;;;;;;8434859;28;20085;-83
2023/03/05 23:23:30;;;;;;;15.80;4.93;;;;;;;;;;8434512;28;20090;-80
2023/03/05 23:27:33;;;;;;;14.50;5.20;;;;;;;;;;8434678;28;20039;-80
2023/03/05 23:31:37;;;;;;;11.35;4.22;;;;;;;;;;8434542;28;20688;-80
2023/03/05 23:35:42;;;;;;;41.42;12.82;;;;;;;;;;8434382;28;20058;-81
2023/03/05 23:39:45;;;;;;;11.25;5.43;;;;;;;;;;8434360;28;20043;-79
2023/03/05 23:43:48;;;;;;;11.98;4.78;;;;;;;;;;8434236;28;20044;-80
2023/03/05 23:47:53;;;;;;;16.30;7.00;;;;;;;;;;8419833;28;20053;-85
2023/03/05 23:51:56;;;;;;;12.18;5.47;;;;;;;;;;8416549;28;20396;-80
2023/03/05 23:55:59;;;;;;;12.85;5.32;;;;;;;;;;8427845;28;20502;-80
